Time;durP1;ratioP1;P1;durP2;ratioP2;P2;SDS_P1;SDS_P2;PMS_P1;PMS_P2;Temp;Humidity;BMP_temperature;BMP_pressure;BME280_temperature;BME280_humidity;BME280_pressure;Samples;Min_cycle;Max_cycle;Signal;HPM_P1;HPM_P2
2023/03/14 00:00:17;;;;;;;5.37;2.20;;;;;;;14.49;51.01;98494.47;680351;29;924;-81
2023/03/14 00:00:38;;;;;;;5.77;2.23;;;;;;;14.52;51.01;98497.00;688371;28;1142;-82
2023/03/14 00:00:59;;;;;;;5.90;2.30;;;;;;;14.55;51.12;98490.81;688340;28;1037;-81
2023/03/14 00:01:20;;;;;;;5.07;2.30;;;;;;;14.50;50.82;98485.69;694013;28;996;-82
2023/03/14 00:01:46;;;;;;;4.15;2.30;;;;;;;14.63;50.69;98501.13;691218;28;1259;-81
2023/03/14 00:02:07;;;;;;;4.80;2.60;;;;;;;14.53;50.90;98496.09;696264;28;1216;-81
2023/03/14 00:02:27;;;;;;;5.80;2.80;;;;;;;14.60;51.00;98495.94;688193;28;1161;-82
2023/03/14 00:02:53;;;;;;;6.45;2.65;;;;;;;14.51;50.89;98491.81;685760;28;1181;-82
2023/03/14 00:03:13;;;;;;;5.30;2.50;;;;;;;14.48;50.93;98487.50;685475;28;1404;-81
2023/03/14 00:03:34;;;;;;;4.72;2.40;;;;;;;14.48;50.73;98482.25;691146;28;1297;-82
2023/03/14 00:03:55;;;;;;;3.70;2.38;;;;;;;14.46;51.05;98484.06;685653;28;1312;-82
2023/03/14 00:04:15;;;;;;;4.03;2.60;;;;;;;14.47;51.01;98488.41;688398;28;1083;-82
2023/03/14 00:04:36;;;;;;;4.70;2.40;;;;;;;14.51;50.99;98492.66;685693;28;1033;-82
2023/03/14 00:04:57;;;;;;;4.93;2.50;;;;;;;14.42;50.98;98486.75;688439;28;1079;-81
2023/03/14 00:05:18;;;;;;;4.25;2.20;;;;;;;14.49;51.07;98494.47;685640;28;1342;-82
2023/03/14 00:05:38;;;;;;;3.88;2.20;;;;;;;14.44;50.97;98488.44;683093;28;1155;-82
2023/03/14 00:06:03;;;;;;;3.57;2.10;;;;;;;14.41;51.15;98485.91;690934;28;1118;-82
2023/03/14 00:06:24;;;;;;;3.63;2.38;;;;;;;14.47;51.20;98480.53;688419;28;771;-82
2023/03/14 00:06:46;;;;;;;3.83;2.43;;;;;;;14.42;50.98;98477.16;688499;28;775;-81
2023/03/14 00:07:07;;;;;;;4.53;2.40;;;;;;;14.49;51.02;98493.59;688242;28;1131;-81
2023/03/14 00:07:31;;;;;;;4.88;2.30;;;;;;;14.41;51.28;98488.53;687771;28;1183;-82
2023/03/14 00:07:52;;;;;;;5.07;2.40;;;;;;;14.39;51.17;98485.94;685481;28;1367;-80
2023/03/14 00:08:13;;;;;;;3.55;2.40;;;;;;;14.42;50.96;98482.38;688267;28;1085;-81
2023/03/14 00:08:34;;;;;;;4.38;2.60;;;;;;;14.39;51.04;98493.81;688590;28;771;-81
2023/03/14 00:08:54;;;;;;;4.35;2.58;;;;;;;14.41;50.96;98485.91;685716;28;1108;-81
2023/03/14 00:09:16;;;;;;;5.05;2.67;;;;;;;14.43;50.83;98484.13;688210;28;1071;-82
2023/03/14 00:10:25;;;;;;;4.47;2.60;;;;;;;14.45;51.19;98486.72;688552;28;1089;-81
2023/03/14 00:10:45;;;;;;;6.53;2.63;;;;;;;14.39;51.11;98487.72;691460;28;1065;-82
2023/03/14 00:11:09;;;;;;;5.78;2.70;;;;;;;14.39;51.16;98487.72;688676;28;1167;-81
2023/03/14 00:11:30;;;;;;;7.15;2.97;;;;;;;14.32;51.21;98483.53;692899;28;1157;-81
2023/03/14 00:11:50;;;;;;;6.20;2.92;;;;;;;14.38;51.26;98491.25;691530;28;1112;-81
2023/03/14 00:12:11;;;;;;;5.88;2.80;;;;;;;14.34;51.02;98482.59;691790;28;1044;-82
2023/03/14 00:12:31;;;;;;;7.03;2.53;;;;;;;14.41;51.21;98483.28;689442;28;1009;-82
2023/03/14 00:12:52;;;;;;;7.78;2.53;;;;;;;14.36;50.98;98477.28;690775;28;1232;-81
2023/03/14 00:13:13;;;;;;;7.28;2.40;;;;;;;14.39;51.24;98479.84;691344;28;1170;-81
2023/03/14 00:13:34;;;;;;;6.00;2.30;;;;;;;14.42;51.08;98492.88;691223;28;1243;-82
2023/03/14 00:13:55;;;;;;;7.00;2.40;;;;;;;14.40;51.31;98478.94;685846;28;1208;-81
2023/03/14 00:14:16;;;;;;;6.85;2.50;;;;;;;14.38;50.97;98486.84;690994;28;1223;-81
2023/03/14 00:14:37;;;;;;;6.60;2.60;;;;;;;14.41;51.04;98485.03;691310;28;942;-80
2023/03/14 00:14:59;;;;;;;4.13;2.20;;;;;;;14.44;50.98;98474.50;691181;28;1115;-81
2023/03/14 00:15:20;;;;;;;4.10;2.30;;;;;;;14.43;51.02;98494.59;691507;28;1216;-82
2023/03/14 00:15:41;;;;;;;3.60;2.17;;;;;;;14.48;50.99;98502.38;682860;29;1071;-82
2023/03/14 00:16:05;;;;;;;4.60;2.28;;;;;;;14.60;50.79;98503.81;688226;28;1962;-82
2023/03/14 00:16:26;;;;;;;6.30;2.20;;;;;;;14.57;50.70;98486.38;690411;28;936;-82
2023/03/14 00:16:47;;;;;;;5.60;2.25;;;;;;;14.63;50.77;98496.72;686537;28;1453;-81
2023/03/14 00:17:08;;;;;;;3.55;2.10;;;;;;;14.55;50.64;98482.94;683662;28;1316;-81
2023/03/14 00:17:30;;;;;;;2.80;2.10;;;;;;;14.63;50.51;98474.91;686387;28;1215;-82
2023/03/14 00:17:50;;;;;;;3.88;2.00;;;;;;;14.56;50.46;98481.19;686272;28;1159;-81
2023/03/14 00:18:11;;;;;;;4.65;2.00;;;;;;;14.63;50.33;98474.91;686232;28;1337;-81
2023/03/14 00:18:32;;;;;;;4.70;2.10;;;;;;;14.59;50.34;98473.22;683576;28;1232;-81
2023/03/14 00:18:53;;;;;;;4.00;2.30;;;;;;;14.71;50.45;98465.06;689049;28;968;-81
2023/03/14 00:19:14;;;;;;;3.37;2.10;;;;;;;14.74;49.97;98488.59;691559;28;1288;-82
2023/03/14 00:19:34;;;;;;;3.65;1.90;;;;;;;14.74;50.21;98478.09;691769;28;1319;-81
2023/03/14 00:19:55;;;;;;;3.90;1.80;;;;;;;14.73;50.09;98471.13;691710;28;1436;-81
2023/03/14 00:20:16;;;;;;;4.60;2.15;;;;;;;14.71;50.13;98478.19;686178;28;1193;-80
2023/03/14 00:20:42;;;;;;;4.60;2.50;;;;;;;14.71;50.01;98477.31;686242;28;805;-82
2023/03/14 00:21:05;;;;;;;4.78;2.55;;;;;;;14.74;50.11;98470.22;683882;29;1045;-80
2023/03/14 00:21:25;;;;;;;4.55;2.35;;;;;;;14.76;50.01;98471.03;694294;28;962;-81
2023/03/14 00:21:47;;;;;;;4.73;2.23;;;;;;;14.75;49.89;98458.81;694035;28;787;-81
2023/03/14 00:22:08;;;;;;;5.82;2.38;;;;;;;14.76;49.74;98473.66;691089;28;1468;-79
2023/03/14 00:22:28;;;;;;;5.95;2.35;;;;;;;14.71;50.12;98464.19;693712;28;1147;-80
2023/03/14 00:22:49;;;;;;;5.47;2.47;;;;;;;14.64;50.00;98456.47;683455;28;1136;-81
2023/03/14 00:23:09;;;;;;;5.47;2.30;;;;;;;14.64;50.07;98458.25;688673;28;1076;-81
2023/03/14 00:23:32;;;;;;;4.70;2.30;;;;;;;14.68;50.02;98474.78;688612;28;1157;-82
2023/03/14 00:23:52;;;;;;;4.10;2.20;;;;;;;14.65;50.04;98462.59;688421;28;1406;-81
2023/03/14 00:24:13;;;;;;;3.38;2.10;;;;;;;14.62;50.17;98450.41;680333;29;1282;-82
2023/03/14 00:24:34;;;;;;;6.00;2.20;;;;;;;14.60;50.09;98446.09;691501;28;941;-82
2023/03/14 00:24:54;;;;;;;6.50;2.30;;;;;;;14.65;50.31;98459.97;685765;28;1275;-81
2023/03/14 00:25:15;;;;;;;6.07;2.25;;;;;;;14.62;50.17;98467.94;688454;28;1300;-82
2023/03/14 00:25:35;;;;;;;4.43;2.10;;;;;;;14.59;50.15;98447.88;683108;29;1272;-81
2023/03/14 00:26:08;;;;;;;4.38;2.20;;;;;;;14.53;50.25;98443.59;686020;28;926;-81
2023/03/14 00:26:29;;;;;;;4.70;2.30;;;;;;;14.51;50.24;98434.94;683299;29;728;-81
2023/03/14 00:26:49;;;;;;;3.87;2.20;;;;;;;14.58;50.24;98461.00;685776;28;1105;-81
2023/03/14 00:27:10;;;;;;;4.13;2.17;;;;;;;14.56;50.16;98447.06;685710;28;1048;-81
2023/03/14 00:27:30;;;;;;;6.47;2.20;;;;;;;14.46;50.33;98431.56;688214;28;1275;-81
2023/03/14 00:27:52;;;;;;;7.32;2.20;;;;;;;14.44;50.41;98435.97;690969;28;1185;-81
2023/03/14 00:28:12;;;;;;;6.05;2.05;;;;;;;14.50;50.33;98443.69;690721;28;1651;-81
2023/03/14 00:28:34;;;;;;;4.88;2.00;;;;;;;14.64;50.08;98435.47;683218;28;1303;-82
2023/03/14 00:28:55;;;;;;;5.30;2.10;;;;;;;14.56;50.41;98434.81;688255;28;1101;-82
2023/03/14 00:29:16;;;;;;;6.00;2.30;;;;;;;14.64;49.84;98434.63;685417;28;1345;-80
2023/03/14 00:29:39;;;;;;;4.28;2.15;;;;;;;14.66;50.03;98444.19;683084;29;1388;-81
2023/03/14 00:30:00;;;;;;;3.23;1.90;;;;;;;14.61;50.10;98445.19;688137;28;1178;-81
2023/03/14 00:30:21;;;;;;;2.97;2.03;;;;;;;14.64;49.74;98421.50;688298;28;1251;-81
2023/03/14 00:31:06;;;;;;;3.70;2.17;;;;;;;14.66;50.05;98440.69;688580;28;760;-81
2023/03/14 00:31:28;;;;;;;4.65;2.42;;;;;;;14.70;49.56;98415.22;688385;28;1363;-82
2023/03/14 00:31:48;;;;;;;5.50;2.50;;;;;;;14.74;49.51;98420.34;685639;28;1172;-81
2023/03/14 00:32:17;;;;;;;6.90;2.63;;;;;;;14.79;49.60;98428.97;682959;28;1256;-81
2023/03/14 00:32:37;;;;;;;6.07;2.33;;;;;;;14.75;49.38;98414.19;685810;28;855;-82
2023/03/14 00:32:58;;;;;;;5.05;2.33;;;;;;;14.73;49.50;98428.25;688226;28;1299;-81
2023/03/14 00:33:19;;;;;;;4.93;2.37;;;;;;;14.78;49.53;98423.75;688469;28;1201;-82
2023/03/14 00:33:41;;;;;;;5.40;2.20;;;;;;;14.69;49.37;98411.72;691130;28;1333;-82
2023/03/14 00:34:01;;;;;;;6.82;2.40;;;;;;;14.73;49.54;98423.88;685549;28;1403;-81
2023/03/14 00:34:22;;;;;;;5.57;2.08;;;;;;;14.73;49.68;98418.63;685713;28;990;-82
2023/03/14 00:34:43;;;;;;;5.05;2.08;;;;;;;14.72;49.49;98427.41;688209;28;1282;-81
2023/03/14 00:35:04;;;;;;;4.40;2.17;;;;;;;14.42;49.99;98418.53;685485;28;1140;-81
2023/03/14 00:35:24;;;;;;;5.88;2.50;;;;;;;14.31;50.29;98426.72;688504;28;836;-81
2023/03/14 00:35:58;;;;;;;4.53;2.30;;;;;;;14.21;50.62;98432.16;688449;28;1935;-82
2023/03/14 00:36:23;;;;;;;3.83;2.22;;;;;;;14.10;50.95;98423.69;685599;28;948;-81
2023/03/14 00:36:44;;;;;;;4.05;2.30;;;;;;;14.20;50.71;98435.69;685777;28;846;-82
2023/03/14 00:37:07;;;;;;;5.07;2.30;;;;;;;14.16;50.91;98431.44;687939;28;1235;-82
2023/03/14 00:37:27;;;;;;;4.60;2.10;;;;;;;14.12;51.07;98429.78;685667;28;1275;-82
2023/03/14 00:37:48;;;;;;;4.47;2.03;;;;;;;14.13;50.97;98434.13;680330;29;1189;-82
2023/03/14 00:38:08;;;;;;;3.35;1.90;;;;;;;14.10;50.91;98428.94;688203;28;1109;-81
2023/03/14 00:38:31;;;;;;;2.92;1.73;;;;;;;14.08;50.94;98435.97;693754;28;1224;-82
2023/03/14 00:38:52;;;;;;;3.33;1.90;;;;;;;14.17;50.83;98435.78;685568;28;1350;-81
2023/03/14 00:39:12;;;;;;;4.90;2.10;;;;;;;14.29;50.73;98444.22;685487;28;1281;-82
2023/03/14 00:39:33;;;;;;;6.05;2.45;;;;;;;14.06;51.13;98441.25;688427;28;740;-82
2023/03/14 00:39:54;;;;;;;7.00;2.57;;;;;;;14.11;51.17;98441.16;693821;28;1357;-82
2023/03/14 00:40:15;;;;;;;5.35;2.47;;;;;;;14.20;50.65;98443.56;685418;28;1129;-82
2023/03/14 00:40:39;;;;;;;5.72;2.30;;;;;;;14.27;50.76;98456.53;691116;28;1193;-81
2023/03/14 00:41:03;;;;;;;5.03;2.13;;;;;;;14.27;50.75;98461.78;690877;28;1457;-81
2023/03/14 00:41:24;;;;;;;5.15;2.20;;;;;;;14.26;50.63;98455.69;688507;28;717;-81
2023/03/14 00:41:45;;;;;;;6.05;2.30;;;;;;;14.38;50.66;98463.25;685679;28;1224;-82
2023/03/14 00:42:05;;;;;;;6.73;2.37;;;;;;;14.22;50.77;98457.53;688079;28;1190;-82
2023/03/14 00:42:26;;;;;;;5.88;2.25;;;;;;;14.37;50.63;98473.75;693859;28;1072;-81
2023/03/14 00:42:46;;;;;;;4.97;2.50;;;;;;;14.32;50.68;98468.63;690938;28;1126;-80
2023/03/14 00:43:07;;;;;;;4.13;2.40;;;;;;;14.35;50.60;98481.69;688279;28;1256;-81
2023/03/14 00:43:28;;;;;;;4.38;2.50;;;;;;;14.37;50.48;98468.50;683101;29;788;-81
2023/03/14 00:43:50;;;;;;;4.18;2.20;;;;;;;14.32;50.54;98465.16;691169;28;1168;-82
2023/03/14 00:44:10;;;;;;;4.97;2.10;;;;;;;14.25;50.41;98483.66;693829;28;1221;-82
2023/03/14 00:44:31;;;;;;;5.32;1.80;;;;;;;14.11;50.92;98475.25;688402;28;1186;-81
2023/03/14 00:45:01;;;;;;;5.50;1.70;;;;;;;14.23;50.85;98502.97;685642;28;1015;-81
2023/03/14 00:45:21;;;;;;;5.70;2.03;;;;;;;14.09;51.04;98480.50;690941;28;1074;-82
2023/03/14 00:45:42;;;;;;;5.30;2.15;;;;;;;14.06;51.08;98491.06;690970;28;1408;-81
2023/03/14 00:46:03;;;;;;;4.30;2.20;;;;;;;14.08;51.07;98488.41;690825;28;1098;-81
2023/03/14 00:46:24;;;;;;;4.80;2.20;;;;;;;14.08;51.39;98491.03;691240;28;905;-81
2023/03/14 00:46:44;;;;;;;6.07;2.30;;;;;;;14.21;50.92;98492.50;688452;28;1213;-81
2023/03/14 00:47:29;;;;;;;5.82;2.17;;;;;;;14.38;50.70;98496.50;688209;28;1383;-81
2023/03/14 00:47:50;;;;;;;3.35;2.15;;;;;;;14.33;50.53;98480.84;685637;28;1082;-82
2023/03/14 00:48:10;;;;;;;2.37;2.17;;;;;;;14.43;50.37;98493.75;684917;28;1304;-82
2023/03/14 00:48:31;;;;;;;3.00;2.20;;;;;;;14.41;50.65;98499.03;688414;28;748;-81
2023/03/14 00:48:52;;;;;;;4.05;2.22;;;;;;;14.30;50.67;98493.16;685642;28;1258;-82
2023/03/14 00:49:13;;;;;;;4.32;2.10;;;;;;;14.32;50.90;98501.88;680265;28;1357;-80
2023/03/14 00:49:34;;;;;;;4.00;2.00;;;;;;;14.22;50.85;98486.38;688265;28;1267;-82
2023/03/14 00:49:54;;;;;;;3.73;2.03;;;;;;;14.19;50.93;98491.66;688261;28;1145;-82
2023/03/14 00:50:15;;;;;;;4.50;2.10;;;;;;;14.23;51.03;98482.84;688299;28;1090;-81
2023/03/14 00:50:36;;;;;;;4.78;2.05;;;;;;;14.41;50.55;98496.41;682960;28;1224;-81
2023/03/14 00:50:57;;;;;;;3.85;1.90;;;;;;;14.52;50.49;98498.78;682356;28;1393;-82
2023/03/14 00:51:17;;;;;;;3.00;1.90;;;;;;;14.32;50.35;98486.16;685368;28;1169;-81
2023/03/14 00:51:38;;;;;;;2.50;1.90;;;;;;;14.37;50.75;98484.25;685667;28;868;-81
2023/03/14 00:51:58;;;;;;;3.08;1.98;;;;;;;14.38;50.57;98501.75;685589;28;1275;-81
2023/03/14 00:52:19;;;;;;;3.03;1.90;;;;;;;14.34;50.60;98484.34;690988;28;913;-81
2023/03/14 00:52:40;;;;;;;3.40;1.90;;;;;;;14.31;50.56;98494.91;691080;28;819;-81
2023/03/14 00:53:01;;;;;;;4.43;2.17;;;;;;;14.36;50.63;98495.66;690754;28;1224;-81
2023/03/14 00:53:22;;;;;;;5.03;2.38;;;;;;;14.45;50.73;98497.19;691105;28;1044;-82
2023/03/14 00:53:43;;;;;;;5.07;2.22;;;;;;;14.48;50.36;98490.13;691203;28;925;-82
2023/03/14 00:54:03;;;;;;;3.78;2.10;;;;;;;14.56;50.23;98489.06;688120;28;1093;-81
2023/03/14 00:54:24;;;;;;;4.72;2.28;;;;;;;14.56;50.26;98491.69;685643;28;1053;-82
2023/03/14 00:54:45;;;;;;;4.93;2.37;;;;;;;14.59;50.00;98488.97;685902;28;1411;-82
2023/03/14 00:55:06;;;;;;;5.82;2.17;;;;;;;14.54;49.98;98489.09;688142;28;1178;-82
2023/03/14 00:55:26;;;;;;;5.35;2.10;;;;;;;14.51;50.10;98476.91;691072;28;1204;-81
2023/03/14 00:55:48;;;;;;;5.32;2.20;;;;;;;14.61;50.17;98474.91;688175;28;1959;-82
2023/03/14 00:56:11;;;;;;;4.90;2.10;;;;;;;14.50;50.07;98483.06;693650;28;1254;-81
2023/03/14 00:56:32;;;;;;;5.47;2.10;;;;;;;14.63;49.76;98477.50;691100;28;870;-82
2023/03/14 00:56:53;;;;;;;5.97;2.22;;;;;;;14.65;49.86;98484.41;688307;28;1302;-82
2023/03/14 00:57:13;;;;;;;5.40;2.30;;;;;;;14.62;49.85;98467.94;682989;28;1251;-81
2023/03/14 00:57:34;;;;;;;4.15;2.10;;;;;;;14.67;49.63;98471.28;688351;28;1230;-81
2023/03/14 00:57:55;;;;;;;3.63;2.13;;;;;;;14.46;49.81;98470.94;685536;28;1172;-82
2023/03/14 00:58:17;;;;;;;3.60;2.00;;;;;;;14.41;49.92;98464.94;682899;28;1381;-82
2023/03/14 00:58:38;;;;;;;4.75;2.00;;;;;;;14.41;50.45;98467.56;693824;28;1297;-81
2023/03/14 00:58:59;;;;;;;4.13;1.73;;;;;;;14.42;50.18;98482.38;690800;28;1213;-82
2023/03/14 00:59:19;;;;;;;3.95;1.70;;;;;;;14.41;50.12;98478.06;682994;28;910;-81
2023/03/14 00:59:40;;;;;;;4.00;1.80;;;;;;;14.33;50.17;98472.97;680476;29;820;-82
2023/03/14 01:00:01;;;;;;;5.32;2.00;;;;;;;14.40;50.22;98473.69;680275;29;1057;-81
2023/03/14 01:00:22;;;;;;;7.55;2.33;;;;;;;14.36;50.31;98475.53;685732;28;1387;-80
2023/03/14 01:00:43;;;;;;;8.82;2.90;;;;;;;14.43;50.33;98473.63;685621;28;1295;-81
2023/03/14 01:01:14;;;;;;;7.47;2.70;;;;;;;14.48;49.91;98463.00;685458;28;1259;-82
2023/03/14 01:01:35;;;;;;;4.10;2.10;;;;;;;14.45;50.18;98455.22;685550;28;1298;-82
2023/03/14 01:01:55;;;;;;;4.93;2.10;;;;;;;14.56;49.81;98447.06;688341;28;1310;-81
2023/03/14 01:02:16;;;;;;;6.43;2.70;;;;;;;14.47;50.09;98440.28;688188;28;1136;-82
2023/03/14 01:02:37;;;;;;;5.72;2.60;;;;;;;14.41;50.10;98443.94;691090;28;1237;-81
2023/03/14 01:02:58;;;;;;;5.30;2.80;;;;;;;14.35;50.26;98449.34;685610;28;1198;-81
2023/03/14 01:03:18;;;;;;;4.20;2.50;;;;;;;14.33;50.51;98445.91;683728;28;1604;-81
2023/03/14 01:03:39;;;;;;;4.13;2.50;;;;;;;14.36;50.39;98446.69;691411;28;1136;-82
2023/03/14 01:04:00;;;;;;;2.80;2.10;;;;;;;14.35;50.39;98450.22;691264;28;1218;-80
2023/03/14 01:04:20;;;;;;;2.70;2.00;;;;;;;14.38;50.22;98441.41;691432;28;1225;-81
2023/03/14 01:04:43;;;;;;;2.45;1.88;;;;;;;14.40;50.41;98455.34;685866;28;1270;-82
2023/03/14 01:05:04;;;;;;;3.03;1.88;;;;;;;14.36;50.36;98449.31;694054;28;1394;-81
2023/03/14 01:05:25;;;;;;;3.65;1.80;;;;;;;14.23;50.37;98435.63;694508;28;988;-81
2023/03/14 01:05:45;;;;;;;4.97;2.05;;;;;;;14.31;50.61;98445.06;688756;28;1117;-80
2023/03/14 01:06:08;;;;;;;5.40;2.10;;;;;;;14.44;50.32;98440.38;688752;28;1148;-82
2023/03/14 01:06:30;;;;;;;5.22;2.33;;;;;;;14.56;50.42;98442.69;688197;28;982;-80
2023/03/14 01:06:50;;;;;;;3.92;2.28;;;;;;;14.62;49.67;98431.19;685980;28;1396;-80
2023/03/14 01:07:11;;;;;;;3.97;2.15;;;;;;;14.62;49.83;98441.69;693909;28;1310;-80
2023/03/14 01:07:33;;;;;;;3.53;2.13;;;;;;;14.59;49.67;98436.50;694356;28;1209;-82
2023/03/14 01:07:54;;;;;;;4.28;1.70;;;;;;;14.48;49.90;98419.28;688803;28;1068;-80
2023/03/14 01:08:15;;;;;;;3.60;1.70;;;;;;;14.61;49.62;98432.06;691332;28;1223;-82
2023/03/14 01:08:36;;;;;;;5.00;1.90;;;;;;;14.49;49.85;98420.13;694218;28;1127;-81
2023/03/14 01:08:57;;;;;;;4.10;2.10;;;;;;;14.56;49.88;98431.34;694174;28;1258;-80
2023/03/14 01:09:20;;;;;;;3.90;2.10;;;;;;;14.58;49.74;98426.91;694023;28;1442;-79
2023/03/14 01:09:42;;;;;;;3.50;2.00;;;;;;;14.62;49.72;98425.94;688930;28;1250;-81
2023/03/14 01:10:05;;;;;;;3.67;2.00;;;;;;;14.58;49.70;98421.66;688552;28;1254;-81
2023/03/14 01:10:26;;;;;;;4.00;2.13;;;;;;;14.63;49.52;98431.13;688680;28;937;-80
2023/03/14 01:10:46;;;;;;;6.60;2.33;;;;;;;14.73;49.54;98429.13;684350;29;1269;-81
2023/03/14 01:11:09;;;;;;;6.30;2.40;;;;;;;14.66;49.21;98415.31;682976;29;1323;-81
2023/03/14 01:11:34;;;;;;;5.10;2.17;;;;;;;14.64;49.74;98424.13;683199;29;1347;-81
2023/03/14 01:11:55;;;;;;;2.35;1.83;;;;;;;14.73;49.12;98434.38;683016;29;1023;-83
2023/03/14 01:12:15;;;;;;;5.22;2.10;;;;;;;14.74;49.37;98430.84;685217;28;1232;-81
2023/03/14 01:12:36;;;;;;;4.90;1.90;;;;;;;14.68;49.31;98427.53;690877;28;1156;-82
2023/03/14 01:12:57;;;;;;;5.10;1.90;;;;;;;14.73;49.33;98433.50;691224;28;1056;-83
2023/03/14 01:13:18;;;;;;;4.20;1.67;;;;;;;14.60;49.34;98427.72;693737;28;1230;-81
2023/03/14 01:13:39;;;;;;;5.03;2.10;;;;;;;14.62;49.28;98429.41;690917;28;1135;-81
2023/03/14 01:14:00;;;;;;;5.97;2.10;;;;;;;14.75;49.52;98437.81;685563;29;1301;-82
2023/03/14 01:14:22;;;;;;;5.82;2.28;;;;;;;14.74;49.16;98445.75;696628;28;1225;-81
2023/03/14 01:14:43;;;;;;;5.63;2.30;;;;;;;14.68;49.26;98444.13;696395;28;1117;-80
2023/03/14 01:15:04;;;;;;;4.57;2.30;;;;;;;14.68;49.07;98423.13;696329;28;1158;-81
2023/03/14 01:15:26;;;;;;;3.50;2.10;;;;;;;14.78;49.08;98445.63;691282;28;1510;-81
2023/03/14 01:15:51;;;;;;;3.45;2.00;;;;;;;14.77;49.28;98443.88;691235;28;997;-81
2023/03/14 01:16:14;;;;;;;3.80;1.95;;;;;;;14.77;49.30;98437.78;696368;28;1108;-82
2023/03/14 01:16:36;;;;;;;3.20;1.92;;;;;;;14.75;49.30;98456.19;693598;28;1133;-81
2023/03/14 01:17:00;;;;;;;2.35;1.75;;;;;;;14.71;49.11;98433.56;691118;28;1015;-80
2023/03/14 01:17:22;;;;;;;3.30;1.95;;;;;;;14.72;49.35;98427.41;685720;28;977;-81
2023/03/14 01:17:44;;;;;;;4.03;2.00;;;;;;;14.78;49.07;98432.50;688015;28;1200;-82
2023/03/14 01:18:04;;;;;;;4.30;2.00;;;;;;;14.74;48.89;98438.72;690666;28;1249;-81
2023/03/14 01:18:25;;;;;;;4.68;2.10;;;;;;;14.76;49.02;98421.16;684976;29;1159;-82
2023/03/14 01:18:46;;;;;;;4.93;2.13;;;;;;;14.72;49.18;98431.78;680681;28;1150;-82
2023/03/14 01:19:07;;;;;;;5.80;2.20;;;;;;;14.71;49.10;98440.56;685398;28;1270;-82
2023/03/14 01:19:28;;;;;;;5.95;2.10;;;;;;;14.69;49.54;98439.75;688557;28;1199;-82
2023/03/14 01:19:49;;;;;;;5.17;2.10;;;;;;;14.73;48.92;98431.75;685565;28;1306;-82
2023/03/14 01:20:12;;;;;;;4.37;2.00;;;;;;;14.89;48.92;98445.31;688207;28;1261;-81
2023/03/14 01:20:33;;;;;;;3.85;2.00;;;;;;;14.97;48.85;98447.72;688171;28;1289;-82
2023/03/14 01:20:53;;;;;;;3.73;2.00;;;;;;;14.86;48.70;98441.94;688153;28;1515;-82
2023/03/14 01:21:22;;;;;;;2.78;2.00;;;;;;;14.77;49.01;98419.41;682729;29;1109;-81
2023/03/14 01:21:43;;;;;;;4.28;2.08;;;;;;;14.76;48.91;98434.28;685888;28;773;-83
2023/03/14 01:22:03;;;;;;;6.35;2.30;;;;;;;14.87;48.73;98438.41;687954;28;1263;-81
2023/03/14 01:22:24;;;;;;;6.50;2.40;;;;;;;14.93;48.68;98438.19;682971;28;1316;-82
2023/03/14 01:22:45;;;;;;;5.55;2.40;;;;;;;14.82;48.89;98446.41;682942;28;1210;-82
2023/03/14 01:23:05;;;;;;;3.30;2.10;;;;;;;14.88;48.72;98442.75;682664;28;1339;-82
2023/03/14 01:23:26;;;;;;;4.75;2.20;;;;;;;14.77;49.11;98430.75;688540;28;1351;-81
2023/03/14 01:23:47;;;;;;;3.73;1.87;;;;;;;14.77;48.93;98435.16;688364;28;1188;-81
2023/03/14 01:24:11;;;;;;;4.80;1.90;;;;;;;14.83;48.91;98455.13;688128;28;1223;-81
2023/03/14 01:24:31;;;;;;;2.97;1.60;;;;;;;14.82;48.78;98448.16;682969;28;792;-82
2023/03/14 01:24:52;;;;;;;2.83;1.67;;;;;;;14.85;48.77;98462.06;693473;28;1107;-81
2023/03/14 01:25:15;;;;;;;2.65;1.65;;;;;;;14.86;48.64;98465.56;690777;28;1179;-81
2023/03/14 01:25:41;;;;;;;3.38;2.00;;;;;;;14.78;49.04;98500.75;682922;28;1352;-81
2023/03/14 01:26:02;;;;;;;3.60;2.20;;;;;;;14.73;49.70;98476.38;687932;28;1012;-80
2023/03/14 01:26:40;;;;;;;5.30;2.60;;;;;;;14.38;51.09;98491.25;685740;28;772;-81
2023/03/14 01:27:02;;;;;;;5.72;3.28;;;;;;;14.16;52.52;98491.75;679934;29;1040;-82
2023/03/14 01:27:23;;;;;;;4.80;3.30;;;;;;;13.95;53.40;98493.94;690924;28;1186;-81
2023/03/14 01:27:44;;;;;;;5.85;3.50;;;;;;;13.81;54.61;98506.47;688272;28;1264;-82
2023/03/14 01:28:05;;;;;;;6.78;3.60;;;;;;;13.54;55.65;98504.41;685308;28;1251;-82
2023/03/14 01:28:26;;;;;;;7.47;3.75;;;;;;;13.45;56.44;98517.69;688337;28;1187;-83
2023/03/14 01:28:47;;;;;;;6.90;3.70;;;;;;;13.39;56.84;98523.09;690963;28;1253;-85
2023/03/14 01:29:08;;;;;;;8.77;4.00;;;;;;;13.21;57.07;98521.69;685396;28;1198;-87
2023/03/14 01:29:31;;;;;;;8.52;3.90;;;;;;;13.08;57.72;98521.88;683292;28;1300;-86
2023/03/14 01:29:52;;;;;;;8.30;3.67;;;;;;;12.98;58.00;98499.41;685628;28;1220;-85
2023/03/14 01:30:13;;;;;;;6.20;3.07;;;;;;;12.93;58.41;98546.59;690683;28;1526;-85
2023/03/14 01:30:46;;;;;;;4.25;2.30;;;;;;;12.81;59.26;98517.97;685582;28;1208;-84
2023/03/14 01:31:10;;;;;;;1.20;1.20;;;;;;;12.81;59.56;98502.28;687981;28;1418;-83
2023/03/14 01:31:31;;;;;;;1.10;1.10;;;;;;;12.78;59.66;98513.66;680339;29;1284;-83
2023/03/14 01:31:51;;;;;;;1.10;1.10;;;;;;;12.78;59.89;98505.81;682919;29;1064;-83
2023/03/14 01:32:12;;;;;;;1.10;1.10;;;;;;;12.78;59.93;98504.97;688133;28;1311;-82
2023/03/14 01:32:33;;;;;;;1.50;1.40;;;;;;;12.77;60.14;98506.69;690964;28;1077;-82
2023/03/14 01:32:54;;;;;;;1.70;1.60;;;;;;;12.89;59.68;98516.97;685484;28;1339;-82
2023/03/14 01:33:14;;;;;;;1.70;1.60;;;;;;;12.83;59.51;98537.13;690767;28;1073;-82
2023/03/14 01:33:38;;;;;;;1.40;1.30;;;;;;;12.79;60.12;98531.06;690983;28;1354;-83
2023/03/14 01:33:59;;;;;;;0.95;0.95;;;;;;;12.70;59.94;98511.19;690774;28;1030;-83
2023/03/14 01:34:20;;;;;;;0.90;0.90;;;;;;;12.68;60.42;98535.66;686080;28;932;-84
2023/03/14 01:34:42;;;;;;;0.90;0.90;;;;;;;12.66;60.45;98530.44;691509;28;1268;-83
2023/03/14 01:35:04;;;;;;;0.90;0.90;;;;;;;12.57;60.66;98505.31;685605;28;1062;-83
2023/03/14 01:35:25;;;;;;;0.90;0.90;;;;;;;12.73;60.33;98541.69;688809;28;1370;-83
2023/03/14 01:35:49;;;;;;;0.90;0.90;;;;;;;12.58;60.68;98507.03;686176;28;1090;-84
2023/03/14 01:36:11;;;;;;;0.80;0.80;;;;;;;12.50;60.69;98498.44;688540;28;1405;-83
2023/03/14 01:36:32;;;;;;;0.80;0.80;;;;;;;12.49;61.04;98520.25;686109;28;1258;-83
2023/03/14 01:36:55;;;;;;;0.80;0.80;;;;;;;12.49;60.78;98528.09;691294;28;1188;-83
2023/03/14 01:37:16;;;;;;;0.80;0.80;;;;;;;12.50;60.78;98513.25;691353;28;1079;-83
2023/03/14 01:37:37;;;;;;;0.80;0.80;;;;;;;12.33;61.67;98536.19;691535;28;854;-82
2023/03/14 01:37:58;;;;;;;0.77;0.77;;;;;;;12.32;61.23;98504.81;688765;28;1024;-84
2023/03/14 01:38:19;;;;;;;0.80;0.80;;;;;;;12.38;61.15;98511.69;688737;28;1203;-83
2023/03/14 01:38:40;;;;;;;0.80;0.80;;;;;;;12.32;61.19;98523.13;691484;28;1036;-82
2023/03/14 01:39:05;;;;;;;0.80;0.80;;;;;;;12.27;61.37;98527.56;685742;28;1369;-82
2023/03/14 01:39:26;;;;;;;0.80;0.80;;;;;;;12.25;61.18;98509.28;683132;28;1264;-83
2023/03/14 01:39:47;;;;;;;0.80;0.80;;;;;;;12.22;61.36;98526.78;688900;28;1021;-82
2023/03/14 01:40:11;;;;;;;0.80;0.80;;;;;;;12.18;61.20;98505.03;691318;28;1264;-82
2023/03/14 01:40:31;;;;;;;0.70;0.70;;;;;;;12.17;61.00;98500.72;686145;28;1263;-84
2023/03/14 01:40:52;;;;;;;0.75;0.75;;;;;;;12.15;61.61;98502.47;688688;28;1450;-83
2023/03/14 01:41:17;;;;;;;0.80;0.80;;;;;;;12.25;61.37;98501.44;691327;28;1095;-84
2023/03/14 01:41:39;;;;;;;0.80;0.80;;;;;;;12.19;61.38;98504.16;683434;28;1252;-85
2023/03/14 01:42:01;;;;;;;0.80;0.80;;;;;;;12.20;61.31;98505.88;688558;28;1151;-84
2023/03/14 01:42:21;;;;;;;0.80;0.80;;;;;;;12.15;61.33;98510.31;696847;28;835;-85
2023/03/14 01:42:46;;;;;;;0.70;0.70;;;;;;;12.12;61.98;98533.88;694303;28;826;-85
2023/03/14 01:43:16;;;;;;;0.70;0.70;;;;;;;12.04;61.86;98494.81;688448;28;1275;-85
2023/03/14 01:43:37;;;;;;;0.70;0.70;;;;;;;12.06;62.07;98533.06;688887;28;1091;-85
2023/03/14 01:43:57;;;;;;;0.70;0.70;;;;;;;12.06;61.86;98499.09;688689;28;1403;-85
2023/03/14 01:44:18;;;;;;;0.70;0.70;;;;;;;11.96;62.16;98494.91;688670;28;1286;-85
2023/03/14 01:44:59;;;;;;;0.70;0.70;;;;;;;12.05;61.99;98492.16;688885;28;744;-83
2023/03/14 01:45:57;;;;;;;0.70;0.70;;;;;;;11.99;61.92;98500.06;691305;28;1199;-84
2023/03/14 01:46:24;;;;;;;0.70;0.70;;;;;;;12.10;62.00;98519.97;691303;28;978;-84
2023/03/14 01:46:45;;;;;;;0.70;0.70;;;;;;;12.03;61.76;98493.03;691358;28;1353;-84
2023/03/14 01:47:07;;;;;;;0.70;0.70;;;;;;;12.12;61.53;98512.97;685822;28;1106;-84